createdAt,value
2022-12-18T00:00:45.464Z,76.37
2022-12-18T00:06:10.022Z,71.56
2022-12-18T00:11:20.660Z,61.18
2022-12-18T00:16:27.351Z,53.37
2022-12-18T00:21:32.380Z,46.07
2022-12-18T00:26:37.727Z,47.34
2022-12-18T00:31:43.364Z,48.01
2022-12-18T00:36:49.279Z,53.09
2022-12-18T00:42:11.246Z,54.91
2022-12-18T00:47:14.440Z,69.04
2022-12-18T00:52:17.551Z,70.95
2022-12-18T00:57:20.757Z,62.81
2022-12-18T01:02:24.045Z,51.65
2022-12-18T01:07:27.374Z,49.41
2022-12-18T01:12:30.796Z,50.69
2022-12-18T01:17:34.922Z,52.23
2022-12-18T01:22:38.330Z,55.29
2022-12-18T01:27:41.547Z,57.40
2022-12-18T01:32:44.748Z,57.72
2022-12-18T01:37:48.083Z,58.68
2022-12-18T01:42:55.054Z,60.27
2022-12-18T01:48:09.995Z,72.76
2022-12-18T01:53:24.531Z,73.66
2022-12-18T01:59:01.219Z,64.88
2022-12-18T02:04:36.792Z,56.78
2022-12-18T02:09:56.377Z,50.60
2022-12-18T02:15:17.790Z,52.64
2022-12-18T02:20:43.332Z,54.26
2022-12-18T02:26:15.321Z,54.58
2022-12-18T02:31:28.400Z,57.41
2022-12-18T02:36:35.003Z,60.87
2022-12-18T02:41:39.661Z,75.22
2022-12-18T02:46:49.959Z,69.73
2022-12-18T02:52:14.266Z,56.79
2022-12-18T02:57:17.412Z,48.25
2022-12-18T03:02:57.620Z,49.10
2022-12-18T03:08:09.473Z,50.28
2022-12-18T03:13:25.774Z,51.54
2022-12-18T03:18:43.930Z,53.93
2022-12-18T03:23:52.726Z,55.23
2022-12-18T03:29:05.915Z,66.22
2022-12-18T03:34:22.746Z,71.68
2022-12-18T03:39:26.943Z,60.82
2022-12-18T03:45:09.509Z,53.51
2022-12-18T03:50:37.186Z,46.14
2022-12-18T03:55:42.174Z,41.80
2022-12-18T04:00:46.168Z,43.91
2022-12-18T04:05:53.625Z,46.22
2022-12-18T04:10:56.988Z,47.96
2022-12-18T04:16:00.336Z,49.42
2022-12-18T04:21:04.629Z,51.61
2022-12-18T04:26:07.840Z,53.16
2022-12-18T04:31:11.186Z,66.53
2022-12-18T04:36:14.582Z,69.31
2022-12-18T04:41:17.775Z,58.98
2022-12-18T04:46:20.828Z,53.09
2022-12-18T04:51:26.677Z,48.05
2022-12-18T04:56:33.038Z,41.94
2022-12-18T05:01:36.205Z,43.28
2022-12-18T05:06:39.550Z,45.44
2022-12-18T05:11:42.657Z,48.48
2022-12-18T05:16:45.762Z,50.49
2022-12-18T05:21:48.973Z,51.85
2022-12-18T05:26:52.278Z,53.04
2022-12-18T05:31:55.372Z,54.33
2022-12-18T05:36:58.494Z,55.61
2022-12-18T05:42:01.610Z,56.86
2022-12-18T05:47:05.408Z,58.09
2022-12-18T05:52:08.839Z,59.10
2022-12-18T05:57:11.967Z,60.09
2022-12-18T06:02:15.346Z,60.87
2022-12-18T06:07:18.769Z,69.96
2022-12-18T06:12:22.392Z,76.74
2022-12-18T06:17:30.774Z,67.94
2022-12-18T06:22:34.040Z,53.61
2022-12-18T06:27:37.239Z,51.75
2022-12-18T06:32:40.447Z,53.14
2022-12-18T06:37:43.551Z,54.13
2022-12-18T06:42:46.787Z,55.05
2022-12-18T06:47:49.975Z,56.26
2022-12-18T06:52:53.082Z,57.87
2022-12-18T06:57:56.175Z,58.55
2022-12-18T07:02:59.358Z,59.42
2022-12-18T07:08:02.601Z,61.08
2022-12-18T07:13:05.700Z,72.03
2022-12-18T07:18:08.830Z,73.53
2022-12-18T07:23:12.014Z,61.38
2022-12-18T07:28:17.668Z,49.26
2022-12-18T07:33:21.095Z,48.07
2022-12-18T07:38:24.123Z,47.97
2022-12-18T07:43:27.206Z,49.68
2022-12-18T07:48:30.759Z,50.98
2022-12-18T07:53:36.423Z,54.02
2022-12-18T07:58:40.107Z,58.11
2022-12-18T08:03:43.345Z,60.42
2022-12-18T08:08:46.544Z,68.98
2022-12-18T08:13:50.260Z,74.69
2022-12-18T08:18:55.197Z,63.21
2022-12-18T08:24:01.746Z,50.58
2022-12-18T08:29:04.894Z,48.87
2022-12-18T08:34:09.849Z,51.33
2022-12-18T08:39:13.265Z,54.14
2022-12-18T08:44:35.204Z,65.38
2022-12-18T08:49:38.406Z,70.70
2022-12-18T08:54:41.924Z,62.27
2022-12-18T08:59:45.064Z,49.87
2022-12-18T09:04:55.403Z,47.67
2022-12-18T09:10:00.354Z,50.03
2022-12-18T09:15:04.437Z,64.30
2022-12-18T09:20:10.022Z,66.40
2022-12-18T09:25:13.171Z,53.93
2022-12-18T09:30:16.474Z,53.77
2022-12-18T09:35:19.580Z,56.20
2022-12-18T09:40:30.159Z,56.32
2022-12-18T09:45:51.257Z,56.80
2022-12-18T09:51:02.278Z,60.55
2022-12-18T09:56:07.638Z,70.39
2022-12-18T10:01:19.449Z,67.93
2022-12-18T10:06:44.158Z,60.13
2022-12-18T10:12:27.974Z,46.93
2022-12-18T10:17:52.638Z,47.94
2022-12-18T10:23:04.719Z,50.38
2022-12-18T10:28:17.667Z,52.77
2022-12-18T10:33:26.021Z,54.96
2022-12-18T10:38:33.035Z,56.29
2022-12-18T10:43:38.405Z,57.73
2022-12-18T10:48:48.585Z,58.50
2022-12-18T10:54:04.363Z,58.95
2022-12-18T10:59:14.336Z,69.14
2022-12-18T11:04:24.509Z,72.07
2022-12-18T11:09:32.888Z,60.99
2022-12-18T11:14:51.146Z,48.11
2022-12-18T11:20:00.530Z,47.22
2022-12-18T11:25:34.908Z,51.73
2022-12-18T11:30:39.103Z,57.06
2022-12-18T11:35:54.085Z,59.00
2022-12-18T11:41:12.344Z,69.19
2022-12-18T11:46:27.891Z,66.63
2022-12-18T11:51:53.273Z,58.95
2022-12-18T11:57:36.109Z,47.23
2022-12-18T12:03:23.870Z,49.72
2022-12-18T12:09:01.278Z,57.08
2022-12-18T12:14:28.982Z,60.29
2022-12-18T12:19:53.495Z,69.04
2022-12-18T12:25:36.711Z,54.25
2022-12-18T12:30:48.721Z,49.26
2022-12-18T12:36:23.471Z,52.29
2022-12-18T12:41:51.898Z,53.73
2022-12-18T12:47:06.033Z,53.49
2022-12-18T12:52:18.623Z,54.81
2022-12-18T12:58:06.729Z,56.32
2022-12-18T13:03:53.552Z,59.59
2022-12-18T13:09:01.443Z,59.86
2022-12-18T13:14:04.595Z,60.63
2022-12-18T13:19:26.490Z,60.80
2022-12-18T13:24:33.630Z,61.56
2022-12-18T13:29:46.486Z,70.74
2022-12-18T13:35:19.922Z,73.90
2022-12-18T13:40:46.284Z,59.31
2022-12-18T13:46:03.265Z,49.02
2022-12-18T13:51:17.736Z,49.00
2022-12-18T13:56:48.455Z,51.33
2022-12-18T14:02:01.987Z,54.33
2022-12-18T14:07:18.010Z,57.69
2022-12-18T14:12:52.529Z,66.54
2022-12-18T14:18:04.579Z,72.28
2022-12-18T14:23:38.391Z,63.53
2022-12-18T14:28:45.738Z,51.62
2022-12-18T14:33:49.148Z,50.99
2022-12-18T14:38:58.227Z,53.01
2022-12-18T14:44:12.459Z,54.64
2022-12-18T14:49:32.042Z,59.56
2022-12-18T14:54:38.640Z,67.35
2022-12-18T14:59:41.965Z,73.78
2022-12-18T15:04:46.396Z,64.78
2022-12-18T15:10:24.926Z,55.01
2022-12-18T15:15:34.388Z,50.81
2022-12-18T15:20:43.838Z,51.89
2022-12-18T15:25:49.734Z,53.13
2022-12-18T15:31:10.950Z,56.78
2022-12-18T15:36:17.594Z,58.36
2022-12-18T15:41:25.959Z,60.43
2022-12-18T15:46:29.172Z,64.44
2022-12-18T15:51:38.603Z,76.42
2022-12-18T15:57:00.288Z,68.91
2022-12-18T16:02:03.564Z,59.55
2022-12-18T16:07:17.579Z,50.96
2022-12-18T16:12:26.868Z,53.64
2022-12-18T16:17:32.990Z,56.94
2022-12-18T16:22:36.480Z,59.98
2022-12-18T16:27:39.789Z,68.36
2022-12-18T16:32:44.399Z,72.86
2022-12-18T16:37:48.049Z,63.20
2022-12-18T16:42:51.283Z,52.50
2022-12-18T16:47:54.399Z,50.52
2022-12-18T16:52:57.668Z,52.30
2022-12-18T16:58:01.117Z,55.98
2022-12-18T17:03:04.559Z,59.09
2022-12-18T17:08:08.034Z,59.21
2022-12-18T17:13:11.329Z,65.46
2022-12-18T17:18:14.539Z,74.57
2022-12-18T17:23:17.745Z,64.05
2022-12-18T17:28:22.226Z,54.31
2022-12-18T17:33:26.004Z,52.72
2022-12-18T17:38:29.143Z,57.22
2022-12-18T17:43:36.121Z,59.18
2022-12-18T17:48:40.417Z,71.04
2022-12-18T17:53:44.317Z,67.20
2022-12-18T17:58:50.551Z,61.90
2022-12-18T18:03:57.929Z,50.76
2022-12-18T18:09:01.264Z,51.31
2022-12-18T18:14:19.843Z,52.84
2022-12-18T18:19:25.506Z,54.29
2022-12-18T18:24:28.727Z,57.66
2022-12-18T18:29:32.026Z,58.80
2022-12-18T18:34:35.871Z,59.95
2022-12-18T18:39:47.023Z,60.16
2022-12-18T18:44:50.246Z,60.25
2022-12-18T18:49:53.460Z,60.32
2022-12-18T18:55:12.189Z,61.03
2022-12-18T19:00:17.474Z,75.33
2022-12-18T19:05:20.594Z,70.78
2022-12-18T19:10:23.935Z,57.40
2022-12-18T19:15:27.012Z,50.53
2022-12-18T19:20:30.528Z,41.52
2022-12-18T19:25:41.628Z,41.07
2022-12-18T19:30:45.858Z,43.51
2022-12-18T19:35:49.165Z,45.86
2022-12-18T19:40:52.779Z,47.18
2022-12-18T19:45:56.489Z,48.52
2022-12-18T19:51:24.900Z,51.03
2022-12-18T19:56:35.511Z,67.87
2022-12-18T20:01:38.771Z,58.56
2022-12-18T20:06:53.505Z,50.41
2022-12-18T20:11:56.784Z,46.07
2022-12-18T20:17:00.591Z,44.14
2022-12-18T20:22:04.085Z,39.76
2022-12-18T20:27:14.049Z,36.56
2022-12-18T20:32:19.469Z,39.35
2022-12-18T20:37:23.064Z,42.33
2022-12-18T20:42:27.329Z,43.66
2022-12-18T20:47:30.506Z,46.69
2022-12-18T20:52:34.124Z,64.55
2022-12-18T20:57:39.285Z,56.14
2022-12-18T21:02:42.606Z,48.36
2022-12-18T21:07:46.240Z,43.48
2022-12-18T21:12:58.719Z,41.85
2022-12-18T21:18:05.123Z,38.61
2022-12-18T21:23:16.440Z,33.77
2022-12-18T21:28:20.543Z,36.29
2022-12-18T21:33:23.954Z,39.56
2022-12-18T21:38:28.700Z,41.93
2022-12-18T21:44:04.373Z,44.72
2022-12-18T21:49:09.847Z,61.82
2022-12-18T21:54:13.047Z,53.03
2022-12-18T21:59:25.874Z,48.35
2022-12-18T22:04:30.054Z,46.13
2022-12-18T22:09:34.517Z,43.24
2022-12-18T22:14:37.882Z,42.02
2022-12-18T22:19:43.139Z,36.62
2022-12-18T22:24:46.627Z,34.68
2022-12-18T22:30:05.217Z,36.83
2022-12-18T22:35:15.408Z,39.31
2022-12-18T22:40:25.334Z,40.54
2022-12-18T22:45:29.056Z,59.00
2022-12-18T22:50:33.905Z,55.01
2022-12-18T22:55:37.111Z,47.96
2022-12-18T23:00:40.942Z,43.54
2022-12-18T23:05:44.159Z,41.38
2022-12-18T23:10:47.348Z,39.58
2022-12-18T23:15:50.498Z,37.63
2022-12-18T23:20:53.667Z,32.17
2022-12-18T23:26:08.113Z,34.23
2022-12-18T23:31:24.344Z,37.19
2022-12-18T23:36:28.996Z,39.32
2022-12-18T23:41:34.259Z,52.61
2022-12-18T23:46:37.980Z,54.83
2022-12-18T23:51:41.179Z,46.87
2022-12-18T23:56:46.340Z,43.76
